Time;durP1;ratioP1;P1;durP2;ratioP2;P2;SDS_P1;SDS_P2;PMS_P1;PMS_P2;Temp;Humidity;BMP_temperature;BMP_pressure;BME280_temperature;BME280_humidity;BME280_pressure;Samples;Min_cycle;Max_cycle;Signal;HPM_P1;HPM_P2
2022/06/21 00:02:06;;;;;;;;;;;;;;;;;;5073916;28;20428;-86
2022/06/21 00:04:32;;;;;;;;;;;;;;;;;;5074955;28;19965;-87
2022/06/21 00:07:01;;;;;;;;;;;;;;;;;;5073429;28;19994;-87
2022/06/21 00:09:26;;;;;;;;;;;;;;;;;;5067674;28;20292;-92
2022/06/21 00:11:52;;;;;;;;;;;;;;;;;;5053740;28;19924;-88
2022/06/21 00:14:17;;;;;;;;;;;;;;;;;;5087525;28;19923;-94
2022/06/21 00:16:43;;;;;;;;;;;;;;;;;;5053950;28;19924;-88
2022/06/21 00:19:15;;;;;;;;;;;;;;;;;;5087432;28;20027;-95
2022/06/21 00:21:41;;;;;;;;;;;;;;;;;;5054919;28;20368;-90
2022/06/21 00:24:07;;;;;;;;;;;;;;;;;;5054147;28;19927;-86
2022/06/21 00:26:32;;;;;;;;;;;;;;;;;;5054694;28;20425;-92
2022/06/21 00:28:58;;;;;;;;;;;;;;;;;;5086743;28;19960;-87
2022/06/21 00:31:26;;;;;;;;;;;;;;;;;;5053570;28;20015;-90
2022/06/21 00:33:51;;;;;;;;;;;;;;;;;;5054542;28;19917;-92
2022/06/21 00:36:21;;;;;;;;;;;;;;;;;;5054457;28;20016;-91
2022/06/21 00:38:46;;;;;;;;;;;;;;;;;;5053182;28;19975;-87
2022/06/21 00:41:13;;;;;;;;;;;;;;;;;;5087124;28;19971;-86
2022/06/21 00:43:43;;;;;;;;;;;;;;;;;;5054070;28;20447;-86
2022/06/21 00:46:26;;;;;;;;;;;;;;;;;;5054038;28;20276;-86
2022/06/21 00:48:53;;;;;;;;;;;;;;;;;;5054047;28;19920;-86
2022/06/21 00:51:22;;;;;;;;;;;;;;;;;;5053944;28;19917;-86
2022/06/21 00:53:49;;;;;;;;;;;;;;;;;;5036057;28;19925;-87
2022/06/21 00:56:14;;;;;;;;;;;;;;;;;;5086160;28;19934;-86
2022/06/21 00:58:40;;;;;;;;;;;;;;;;;;5054188;28;20012;-87
2022/06/21 01:01:18;;;;;;;;;;;;;;;;;;5086162;28;20391;-86
2022/06/21 01:04:01;;;;;;;;;;;;;;;;;;5054026;28;19917;-86
2022/06/21 01:06:34;;;;;;;;;;;;;;;;;;5053916;28;20386;-86
2022/06/21 01:09:04;;;;;;;;;;;;;;;;;;5052371;28;19920;-85
2022/06/21 01:11:34;;;;;;;;;;;;;;;;;;5053852;28;19917;-86
2022/06/21 01:14:01;;;;;;;;;;;;;;;;;;5053979;28;19936;-86
2022/06/21 01:16:27;;;;;;;;;;;;;;;;;;5053945;28;20029;-85
2022/06/21 01:18:53;;;;;;;;;;;;;;;;;;5086630;28;20399;-85
2022/06/21 01:21:20;;;;;;;;;;;;;;;;;;5057782;28;19956;-86
2022/06/21 01:23:59;;;;;;;;;;;;;;;;;;5056504;28;19916;-86
2022/06/21 01:26:43;;;;;;;;;;;;;;;;;;5057797;28;19916;-86
2022/06/21 01:29:15;;;;;;;;;;;;;;;;;;5057687;28;20423;-86
2022/06/21 01:31:42;;;;;;;;;;;;;;;;;;5057827;28;20378;-86
2022/06/21 01:34:33;;;;;;;;;;;;;;;;;;5057509;28;19917;-85
2022/06/21 01:37:02;;;;;;;;;;;;;;;;;;5089623;28;19963;-86
2022/06/21 01:39:31;;;;;;;;;;;;;;;;;;5056181;28;20011;-86
2022/06/21 01:42:08;;;;;;;;;;;;;;;;;;5057362;28;19916;-86
2022/06/21 01:44:36;;;;;;;;;;;;;;;;;;5057309;28;20040;-85
2022/06/21 01:47:04;;;;;;;;;;;;;;;;;;5057649;28;20109;-86
2022/06/21 01:49:31;;;;;;;;;;;;;;;;;;5057611;28;20304;-86
2022/06/21 01:52:00;;;;;;;;;;;;;;;;;;5056111;28;19917;-86
2022/06/21 01:54:27;;;;;;;;;;;;;;;;;;5057266;28;20429;-86
2022/06/21 01:56:53;;;;;;;;;;;;;;;;;;5089536;28;19967;-86
2022/06/21 01:59:21;;;;;;;;;;;;;;;;;;5057092;28;19917;-87
2022/06/21 02:01:56;;;;;;;;;;;;;;;;;;5057069;28;20384;-86
2022/06/21 02:04:23;;;;;;;;;;;;;;;;;;5055721;28;19931;-86
2022/06/21 02:06:50;;;;;;;;;;;;;;;;;;5068936;28;20034;-87
2022/06/21 02:09:22;;;;;;;;;;;;;;;;;;5069786;28;20015;-87
2022/06/21 02:11:50;;;;;;;;;;;;;;;;;;5077272;28;19920;-87
2022/06/21 02:14:29;;;;;;;;;;;;;;;;;;5077033;28;19938;-86
2022/06/21 02:17:01;;;;;;;;;;;;;;;;;;5076641;28;19924;-87
2022/06/21 02:19:46;;;;;;;;;;;;;;;;;;5075666;28;20260;-86
2022/06/21 02:22:14;;;;;;;;;;;;;;;;;;5102127;28;20390;-87
2022/06/21 02:24:40;;;;;;;;;;;;;;;;;;5061463;28;20344;-87
2022/06/21 02:27:06;;;;;;;;;;;;;;;;;;5055140;28;19917;-86
2022/06/21 02:29:31;;;;;;;;;;;;;;;;;;5055947;28;19972;-86
2022/06/21 02:31:58;;;;;;;;;;;;;;;;;;5088929;28;19916;-87
2022/06/21 02:34:32;;;;;;;;;;;;;;;;;;5056296;28;19920;-87
2022/06/21 02:36:59;;;;;;;;;;;;;;;;;;5056265;28;20003;-86
2022/06/21 02:39:26;;;;;;;;;;;;;;;;;;5055060;28;19924;-87
2022/06/21 02:41:56;;;;;;;;;;;;;;;;;;5056310;28;20368;-87
2022/06/21 02:44:27;;;;;;;;;;;;;;;;;;5107609;28;19922;-87
2022/06/21 02:46:55;;;;;;;;;;;;;;;;;;5074885;28;19917;-88
2022/06/21 02:49:26;;;;;;;;;;;;;;;;;;5075776;28;19917;-87
2022/06/21 02:51:55;;;;;;;;;;;;;;;;;;5058124;28;20376;-90
2022/06/21 02:54:26;;;;;;;;;;;;;;;;;;5056158;28;19921;-87
2022/06/21 02:57:01;;;;;;;;;;;;;;;;;;5058247;28;19916;-87
2022/06/21 02:59:27;;;;;;;;;;;;;;;;;;5074791;28;19967;-88
2022/06/21 03:01:55;;;;;;;;;;;;;;;;;;5061076;28;19921;-87
2022/06/21 03:04:22;;;;;;;;;;;;;;;;;;5054643;28;19952;-87
2022/06/21 03:06:49;;;;;;;;;;;;;;;;;;5055826;28;19956;-86
2022/06/21 03:09:16;;;;;;;;;;;;;;;;;;5055462;28;19932;-87
2022/06/21 03:11:47;;;;;;;;;;;;;;;;;;5073089;28;19951;-87
2022/06/21 03:14:15;;;;;;;;;;;;;;;;;;5085491;28;19933;-86
2022/06/21 03:16:41;;;;;;;;;;;;;;;;;;5095783;28;19919;-88
2022/06/21 03:19:13;;;;;;;;;;;;;;;;;;5094210;28;19917;-87
2022/06/21 03:21:38;;;;;;;;;;;;;;;;;;5091338;28;19920;-89
2022/06/21 03:24:07;;;;;;;;;;;;;;;;;;5086449;28;20420;-87
2022/06/21 03:26:34;;;;;;;;;;;;;;;;;;5094464;28;19916;-89
2022/06/21 03:28:59;;;;;;;;;;;;;;;;;;5089314;28;20284;-87
2022/06/21 03:31:24;;;;;;;;;;;;;;;;;;5080632;28;19925;-94
2022/06/21 03:33:52;;;;;;;;;;;;;;;;;;5090910;28;19956;-89
2022/06/21 03:36:20;;;;;;;;;;;;;;;;;;5088957;28;19901;-91
2022/06/21 03:38:47;;;;;;;;;;;;;;;;;;5097139;28;19925;-90
2022/06/21 03:44:01;;;;;;;;;;;;;;;;;;5097561;28;20032;-86
2022/06/21 03:46:34;;;;;;;;;;;;;;;;;;5087163;28;19928;-91
2022/06/21 03:49:20;;;;;;;;;;;;;;;;;;5055465;28;19924;-87
2022/06/21 03:51:47;;;;;;;;;;;;;;;;;;5055738;28;20061;-87
2022/06/21 03:54:25;;;;;;;;;;;;;;;;;;5053619;28;19916;-88
2022/06/21 03:56:55;;;;;;;;;;;;;;;;;;5066150;28;19917;-87
2022/06/21 03:59:30;;;;;;;;;;;;;;;;;;5074874;28;20369;-86
2022/06/21 04:02:00;;;;;;;;;;;;;;;;;;5074663;28;20005;-86
2022/06/21 04:04:29;;;;;;;;;;;;;;;;;;5074714;28;20051;-85
2022/06/21 04:06:58;;;;;;;;;;;;;;;;;;5074827;28;19924;-87
2022/06/21 04:09:24;;;;;;;;;;;;;;;;;;5071803;28;20383;-87
2022/06/21 04:11:56;;;;;;;;;;;;;;;;;;5092664;28;19920;-88
2022/06/21 04:14:48;;;;;;;;;;;;;;;;;;5073648;28;20268;-87
2022/06/21 04:17:13;;;;;;;;;;;;;;;;;;5104796;28;20003;-88
2022/06/21 04:19:49;;;;;;;;;;;;;;;;;;5076077;28;19948;-88
2022/06/21 04:22:28;;;;;;;;;;;;;;;;;;5072847;28;20323;-87
2022/06/21 04:25:00;;;;;;;;;;;;;;;;;;5073884;28;19920;-87
2022/06/21 04:27:32;;;;;;;;;;;;;;;;;;5074335;28;19959;-87
2022/06/21 04:30:01;;;;;;;;;;;;;;;;;;5072729;28;19932;-88
2022/06/21 04:32:32;;;;;;;;;;;;;;;;;;5073481;28;19916;-87
2022/06/21 04:35:04;;;;;;;;;;;;;;;;;;5074075;28;19916;-88
2022/06/21 04:37:34;;;;;;;;;;;;;;;;;;5072734;28;19917;-87
2022/06/21 04:40:06;;;;;;;;;;;;;;;;;;5075318;28;19924;-87
2022/06/21 04:42:50;;;;;;;;;;;;;;;;;;5073969;28;20367;-87
2022/06/21 04:45:19;;;;;;;;;;;;;;;;;;5073868;28;19916;-88
2022/06/21 04:47:52;;;;;;;;;;;;;;;;;;5073870;28;19919;-88
2022/06/21 04:50:21;;;;;;;;;;;;;;;;;;5073908;28;19923;-88
2022/06/21 04:52:51;;;;;;;;;;;;;;;;;;5071624;28;19924;-87
2022/06/21 04:55:16;;;;;;;;;;;;;;;;;;5072812;28;19923;-87
2022/06/21 04:57:42;;;;;;;;;;;;;;;;;;5073736;28;19917;-87
2022/06/21 05:00:16;;;;;;;;;;;;;;;;;;5072897;28;19924;-89
2022/06/21 05:02:52;;;;;;;;;;;;;;;;;;5073861;28;19912;-87
2022/06/21 05:05:25;;;;;;;;;;;;;;;;;;5073982;28;19959;-87
2022/06/21 05:07:50;;;;;;;;;;;;;;;;;;5072367;28;20279;-88
2022/06/21 05:10:20;;;;;;;;;;;;;;;;;;5073594;28;19916;-87
2022/06/21 05:12:47;;;;;;;;;;;;;;;;;;5073926;28;19920;-88
2022/06/21 05:15:21;;;;;;;;;;;;;;;;;;5071676;28;19959;-88
2022/06/21 05:17:49;;;;;;;;;;;;;;;;;;5073467;28;19920;-88
2022/06/21 05:20:17;;;;;;;;;;;;;;;;;;5073656;28;19916;-88
2022/06/21 05:22:44;;;;;;;;;;;;;;;;;;5073448;28;20007;-87
2022/06/21 05:25:30;;;;;;;;;;;;;;;;;;5073520;28;19916;-87
2022/06/21 05:28:01;;;;;;;;;;;;;;;;;;5073553;28;19923;-87
2022/06/21 05:30:39;;;;;;;;;;;;;;;;;;5072224;28;19917;-87
2022/06/21 05:33:10;;;;;;;;;;;;;;;;;;5073095;28;20013;-85
2022/06/21 05:35:37;;;;;;;;;;;;;;;;;;5073427;28;20371;-85
2022/06/21 05:38:06;;;;;;;;;;;;;;;;;;5073280;28;20004;-88
2022/06/21 05:40:38;;;;;;;;;;;;;;;;;;5073493;28;19917;-85
2022/06/21 05:43:04;;;;;;;;;;;;;;;;;;5072074;28;19938;-85
2022/06/21 05:45:33;;;;;;;;;;;;;;;;;;5073365;28;19917;-86
2022/06/21 05:48:00;;;;;;;;;;;;;;;;;;5073254;28;19931;-85
2022/06/21 05:50:30;;;;;;;;;;;;;;;;;;5073344;28;20338;-85
2022/06/21 05:52:57;;;;;;;;;;;;;;;;;;5073305;28;19922;-86
2022/06/21 05:55:25;;;;;;;;;;;;;;;;;;5072852;28;19962;-86
2022/06/21 05:57:53;;;;;;;;;;;;;;;;;;5072819;28;19939;-88
2022/06/21 06:00:22;;;;;;;;;;;;;;;;;;5072063;28;19985;-87
2022/06/21 06:02:49;;;;;;;;;;;;;;;;;;5073320;28;19956;-87
2022/06/21 06:05:18;;;;;;;;;;;;;;;;;;5074572;28;19970;-88
2022/06/21 06:07:54;;;;;;;;;;;;;;;;;;5077127;28;19924;-86
2022/06/21 06:10:20;;;;;;;;;;;;;;;;;;5066558;28;19920;-87
2022/06/21 06:12:48;;;;;;;;;;;;;;;;;;5054023;28;19924;-88
2022/06/21 06:15:27;;;;;;;;;;;;;;;;;;5055722;28;19969;-87
2022/06/21 06:18:09;;;;;;;;;;;;;;;;;;5055027;28;19924;-88
2022/06/21 06:20:34;;;;;;;;;;;;;;;;;;5056816;28;19968;-86
2022/06/21 06:22:59;;;;;;;;;;;;;;;;;;5056452;28;19939;-89
2022/06/21 06:25:25;;;;;;;;;;;;;;;;;;5088966;28;19917;-87
2022/06/21 06:27:53;;;;;;;;;;;;;;;;;;5056715;28;20368;-87
2022/06/21 06:30:22;;;;;;;;;;;;;;;;;;5056736;28;19917;-88
2022/06/21 06:32:56;;;;;;;;;;;;;;;;;;5056670;28;19917;-88
2022/06/21 06:35:23;;;;;;;;;;;;;;;;;;5088765;28;19916;-87
2022/06/21 06:37:49;;;;;;;;;;;;;;;;;;5055400;28;19931;-88
2022/06/21 06:40:20;;;;;;;;;;;;;;;;;;5057001;28;19921;-91
2022/06/21 06:42:47;;;;;;;;;;;;;;;;;;5056520;28;19917;-88
2022/06/21 06:45:15;;;;;;;;;;;;;;;;;;5055276;28;19917;-88
2022/06/21 06:47:47;;;;;;;;;;;;;;;;;;5056925;28;20327;-89
2022/06/21 06:50:12;;;;;;;;;;;;;;;;;;5064964;28;19921;-88
2022/06/21 06:52:41;;;;;;;;;;;;;;;;;;5076064;28;19916;-92
2022/06/21 06:55:11;;;;;;;;;;;;;;;;;;5094188;28;19969;-92
2022/06/21 06:57:43;;;;;;;;;;;;;;;;;;5096514;28;20383;-91
2022/06/21 07:00:17;;;;;;;;;;;;;;;;;;5095855;28;19916;-92
2022/06/21 07:02:46;;;;;;;;;;;;;;;;;;5097254;28;19920;-89
2022/06/21 07:05:14;;;;;;;;;;;;;;;;;;5096958;28;19916;-89
2022/06/21 07:07:45;;;;;;;;;;;;;;;;;;5096147;28;20257;-89
2022/06/21 07:10:15;;;;;;;;;;;;;;;;;;5096244;28;19916;-90
2022/06/21 07:12:41;;;;;;;;;;;;;;;;;;5095085;28;19954;-90
2022/06/21 07:15:07;;;;;;;;;;;;;;;;;;5095820;28;20026;-89
2022/06/21 07:17:41;;;;;;;;;;;;;;;;;;5095904;28;19916;-90
2022/06/21 07:20:18;;;;;;;;;;;;;;;;;;5095737;28;20352;-90
2022/06/21 07:22:43;;;;;;;;;;;;;;;;;;5096926;28;19916;-91
2022/06/21 07:25:17;;;;;;;;;;;;;;;;;;5095896;28;19923;-91
2022/06/21 07:27:45;;;;;;;;;;;;;;;;;;5096955;28;19923;-88
2022/06/21 07:30:12;;;;;;;;;;;;;;;;;;5096351;28;19961;-89
2022/06/21 07:32:49;;;;;;;;;;;;;;;;;;5094681;28;19939;-90
2022/06/21 07:35:24;;;;;;;;;;;;;;;;;;5095941;28;20011;-93
2022/06/21 07:37:54;;;;;;;;;;;;;;;;;;5094699;28;20299;-88
2022/06/21 07:40:19;;;;;;;;;;;;;;;;;;5095222;28;19923;-88
2022/06/21 07:42:59;;;;;;;;;;;;;;;;;;5095367;28;19916;-90
2022/06/21 07:45:28;;;;;;;;;;;;;;;;;;5095222;28;19920;-89
2022/06/21 07:48:22;;;;;;;;;;;;;;;;;;5095258;28;19922;-90
2022/06/21 07:50:48;;;;;;;;;;;;;;;;;;5090235;28;20430;-90
2022/06/21 07:53:19;;;;;;;;;;;;;;;;;;5095444;28;20004;-90
2022/06/21 07:55:55;;;;;;;;;;;;;;;;;;5097565;28;19923;-90
2022/06/21 07:58:27;;;;;;;;;;;;;;;;;;5102465;28;19939;-91
2022/06/21 08:06:41;;;;;;;;;;;;;;;;;;5078926;28;19951;-89
2022/06/21 08:09:07;;;;;;;;;;;;;;;;;;5062777;28;19966;-89
2022/06/21 08:11:36;;;;;;;;;;;;;;;;;;5058805;28;19917;-90
2022/06/21 08:14:01;;;;;;;;;;;;;;;;;;5054338;28;19913;-90
2022/06/21 08:16:33;;;;;;;;;;;;;;;;;;5055153;28;20379;-91
2022/06/21 08:19:06;;;;;;;;;;;;;;;;;;5054649;28;19917;-92
2022/06/21 08:21:44;;;;;;;;;;;;;;;;;;5086592;28;20450;-90
2022/06/21 08:24:21;;;;;;;;;;;;;;;;;;5056197;28;20375;-94
2022/06/21 08:26:54;;;;;;;;;;;;;;;;;;5055711;28;19916;-90
2022/06/21 08:29:22;;;;;;;;;;;;;;;;;;5053963;28;19917;-90
2022/06/21 08:31:54;;;;;;;;;;;;;;;;;;5054270;28;19917;-90
2022/06/21 08:34:40;;;;;;;;;;;;;;;;;;5054712;28;19982;-91
2022/06/21 08:37:10;;;;;;;;;;;;;;;;;;5054695;28;19916;-91
2022/06/21 08:39:40;;;;;;;;;;;;;;;;;;5054337;28;20441;-90
2022/06/21 08:42:11;;;;;;;;;;;;;;;;;;5059263;28;19917;-87
2022/06/21 08:45:40;;;;;;;;;;;;;;;;;;5076670;28;19916;-89
2022/06/21 08:47:53;;;;;;;;;;;;;;;;;;5073947;28;20359;-89
2022/06/21 08:50:37;;;;;;;;;;;;;;;;;;5085369;28;20336;-88
2022/06/21 08:53:03;;;;;;;;;;;;;;;;;;5092586;28;19916;-90
2022/06/21 08:55:36;;;;;;;;;;;;;;;;;;5091248;28;19973;-88
2022/06/21 08:58:08;;;;;;;;;;;;;;;;;;5090301;28;19931;-88
2022/06/21 09:00:48;;;;;;;;;;;;;;;;;;5094288;28;19955;-88
2022/06/21 09:03:36;;;;;;;;;;;;;;;;;;5085510;28;20299;-90
2022/06/21 09:06:13;;;;;;;;;;;;;;;;;;5091610;28;19920;-88
2022/06/21 09:08:47;;;;;;;;;;;;;;;;;;5092505;28;19921;-88
2022/06/21 09:11:31;;;;;;;;;;;;;;;;;;5093877;28;19916;-89
2022/06/21 09:13:59;;;;;;;;;;;;;;;;;;5093694;28;19920;-89
2022/06/21 09:16:43;;;;;;;;;;;;;;;;;;5084002;28;19987;-89
2022/06/21 09:19:25;;;;;;;;;;;;;;;;;;5052893;28;19917;-87
2022/06/21 09:22:09;;;;;;;;;;;;;;;;;;5084892;28;19967;-87
2022/06/21 09:24:39;;;;;;;;;;;;;;;;;;5053525;28;20003;-92
2022/06/21 09:27:22;;;;;;;;;;;;;;;;;;5053760;28;20007;-91
2022/06/21 09:30:01;;;;;;;;;;;;;;;;;;5086006;28;19955;-91
2022/06/21 09:32:46;;;;;;;;;;;;;;;;;;5053697;28;20380;-88
2022/06/21 09:35:22;;;;;;;;;;;;;;;;;;5053420;28;19923;-90
2022/06/21 09:37:47;;;;;;;;;;;;;;;;;;5066975;28;19921;-87
2022/06/21 09:40:31;;;;;;;;;;;;;;;;;;5073361;28;20007;-90
2022/06/21 09:43:03;;;;;;;;;;;;;;;;;;5076084;28;19917;-92
2022/06/21 09:45:35;;;;;;;;;;;;;;;;;;5076008;28;19967;-91
2022/06/21 09:48:30;;;;;;;;;;;;;;;;;;5075890;28;19963;-89
2022/06/21 09:50:56;;;;;;;;;;;;;;;;;;5046765;28;20378;-88
2022/06/21 09:53:37;;;;;;;;;;;;;;;;;;5055125;28;20003;-89
2022/06/21 09:56:09;;;;;;;;;;;;;;;;;;5054788;28;19923;-89
2022/06/21 09:58:34;;;;;;;;;;;;;;;;;;5055021;28;19983;-88
2022/06/21 10:01:12;;;;;;;;;;;;;;;;;;5054983;28;19956;-88
2022/06/21 10:04:16;;;;;;;;;;;;;;;;;;5054993;28;20051;-89
2022/06/21 10:07:00;;;;;;;;;;;;;;;;;;5026300;28;20400;-90
2022/06/21 10:09:31;;;;;;;;;;;;;;;;;;5005263;28;20471;-90
2022/06/21 10:12:05;;;;;;;;;;;;;;;;;;4997515;28;19917;-90
2022/06/21 10:14:42;;;;;;;;;;;;;;;;;;5012766;28;20491;-90
2022/06/21 10:17:13;;;;;;;;;;;;;;;;;;5012363;28;19918;-91
2022/06/21 10:19:39;;;;;;;;;;;;;;;;;;5012307;28;19956;-89
2022/06/21 10:22:20;;;;;;;;;;;;;;;;;;4995595;28;19964;-89
2022/06/21 10:24:57;;;;;;;;;;;;;;;;;;4979710;28;19918;-90
2022/06/21 10:27:31;;;;;;;;;;;;;;;;;;5033046;28;19917;-89
2022/06/21 10:30:15;;;;;;;;;;;;;;;;;;5018638;28;19939;-88
2022/06/21 10:32:59;;;;;;;;;;;;;;;;;;5035092;28;20365;-89
2022/06/21 10:35:43;;;;;;;;;;;;;;;;;;5034392;28;20409;-90
2022/06/21 10:38:28;;;;;;;;;;;;;;;;;;5051458;28;19920;-88
2022/06/21 10:40:54;;;;;;;;;;;;;;;;;;5056341;28;19917;-89
2022/06/21 10:43:23;;;;;;;;;;;;;;;;;;5068751;28;20393;-91
2022/06/21 10:45:54;;;;;;;;;;;;;;;;;;5082105;28;19928;-91
2022/06/21 10:48:33;;;;;;;;;;;;;;;;;;5074954;28;19999;-89
2022/06/21 10:51:02;;;;;;;;;;;;;;;;;;5076005;28;19916;-88
2022/06/21 10:53:30;;;;;;;;;;;;;;;;;;5076016;28;19961;-88
2022/06/21 10:58:45;;;;;;;;;;;;;;;;;;5076055;28;19923;-87
2022/06/21 11:01:29;;;;;;;;;;;;;;;;;;5075832;28;19959;-88
2022/06/21 11:04:22;;;;;;;;;;;;;;;;;;5074523;28;20390;-88
2022/06/21 11:06:54;;;;;;;;;;;;;;;;;;5074500;28;19920;-88
2022/06/21 11:09:26;;;;;;;;;;;;;;;;;;5074274;28;20011;-89
2022/06/21 11:14:57;;;;;;;;;;;;;;;;;;5075378;28;19923;-89
2022/06/21 11:17:28;;;;;;;;;;;;;;;;;;5075418;28;20287;-88
2022/06/21 11:20:05;;;;;;;;;;;;;;;;;;5075438;28;20046;-89
2022/06/21 11:22:36;;;;;;;;;;;;;;;;;;5074222;28;19917;-90
2022/06/21 11:25:15;;;;;;;;;;;;;;;;;;5075467;28;19924;-89
2022/06/21 11:27:51;;;;;;;;;;;;;;;;;;5074055;28;19963;-88
2022/06/21 11:30:24;;;;;;;;;;;;;;;;;;5073805;28;19926;-90
2022/06/21 11:32:49;;;;;;;;;;;;;;;;;;5075160;28;19917;-90
2022/06/21 11:35:14;;;;;;;;;;;;;;;;;;5074969;28;19916;-90
2022/06/21 11:37:40;;;;;;;;;;;;;;;;;;5074908;28;20378;-89
2022/06/21 11:40:17;;;;;;;;;;;;;;;;;;5074978;28;19955;-90
2022/06/21 11:42:53;;;;;;;;;;;;;;;;;;5073594;28;19916;-91
2022/06/21 11:45:21;;;;;;;;;;;;;;;;;;5074964;28;19916;-89
2022/06/21 11:47:57;;;;;;;;;;;;;;;;;;5074930;28;20375;-91
2022/06/21 11:50:24;;;;;;;;;;;;;;;;;;5074823;28;19917;-89
2022/06/21 11:52:50;;;;;;;;;;;;;;;;;;5073482;28;19970;-91
2022/06/21 11:55:17;;;;;;;;;;;;;;;;;;5074787;28;19920;-89
2022/06/21 11:57:55;;;;;;;;;;;;;;;;;;5073272;28;19917;-90
2022/06/21 12:00:43;;;;;;;;;;;;;;;;;;5074662;28;19917;-90
2022/06/21 12:03:14;;;;;;;;;;;;;;;;;;5072613;28;19912;-90
2022/06/21 12:05:40;;;;;;;;;;;;;;;;;;5073337;28;19917;-89
2022/06/21 12:08:15;;;;;;;;;;;;;;;;;;5073036;28;20337;-90
2022/06/21 12:10:51;;;;;;;;;;;;;;;;;;5074597;28;19920;-90
2022/06/21 12:13:17;;;;;;;;;;;;;;;;;;5076517;28;19912;-92
2022/06/21 12:15:45;;;;;;;;;;;;;;;;;;5092674;28;19920;-92
2022/06/21 12:18:14;;;;;;;;;;;;;;;;;;5085625;28;19923;-92
2022/06/21 12:20:48;;;;;;;;;;;;;;;;;;5096139;28;19924;-89
2022/06/21 12:23:19;;;;;;;;;;;;;;;;;;5090437;28;19917;-89
2022/06/21 12:25:46;;;;;;;;;;;;;;;;;;5076273;28;19917;-89
2022/06/21 12:28:15;;;;;;;;;;;;;;;;;;5058151;28;20342;-90
2022/06/21 12:30:41;;;;;;;;;;;;;;;;;;5087198;28;20011;-91
2022/06/21 12:33:08;;;;;;;;;;;;;;;;;;5054626;28;20384;-89
2022/06/21 12:35:52;;;;;;;;;;;;;;;;;;5054283;28;19969;-88
2022/06/21 12:38:23;;;;;;;;;;;;;;;;;;5054275;28;20050;-89
2022/06/21 12:41:12;;;;;;;;;;;;;;;;;;5054671;28;20257;-92
2022/06/21 12:44:04;;;;;;;;;;;;;;;;;;5057952;28;20379;-91
2022/06/21 12:46:30;;;;;;;;;;;;;;;;;;5084624;28;19925;-91
2022/06/21 12:49:06;;;;;;;;;;;;;;;;;;5056365;28;20391;-90
2022/06/21 12:51:51;;;;;;;;;;;;;;;;;;5055249;28;20007;-90
2022/06/21 12:54:23;;;;;;;;;;;;;;;;;;5070041;28;19943;-92
2022/06/21 12:57:01;;;;;;;;;;;;;;;;;;5062101;28;19964;-90
2022/06/21 12:59:46;;;;;;;;;;;;;;;;;;5072776;28;20438;-91
2022/06/21 13:02:20;;;;;;;;;;;;;;;;;;5066020;28;20016;-93
2022/06/21 13:04:46;;;;;;;;;;;;;;;;;;5053120;28;19917;-93
2022/06/21 13:07:18;;;;;;;;;;;;;;;;;;5052143;28;19917;-91
2022/06/21 13:09:52;;;;;;;;;;;;;;;;;;5051559;28;19920;-91
2022/06/21 13:12:43;;;;;;;;;;;;;;;;;;5061129;28;20434;-91
2022/06/21 13:15:21;;;;;;;;;;;;;;;;;;5054443;28;19944;-91
2022/06/21 13:18:05;;;;;;;;;;;;;;;;;;5057220;28;19927;-92
2022/06/21 13:20:42;;;;;;;;;;;;;;;;;;5064287;28;19921;-91
2022/06/21 13:23:26;;;;;;;;;;;;;;;;;;5063574;28;19921;-92
2022/06/21 13:25:55;;;;;;;;;;;;;;;;;;5068490;28;19927;-92
2022/06/21 13:28:39;;;;;;;;;;;;;;;;;;5065514;28;19929;-92
2022/06/21 13:31:10;;;;;;;;;;;;;;;;;;5058293;28;19928;-93
2022/06/21 13:33:37;;;;;;;;;;;;;;;;;;5063998;28;19929;-89
2022/06/21 13:36:28;;;;;;;;;;;;;;;;;;5060924;28;19928;-90
2022/06/21 13:39:00;;;;;;;;;;;;;;;;;;5068866;28;19927;-92
2022/06/21 13:44:34;;;;;;;;;;;;;;;;;;5075005;28;20375;-91
2022/06/21 13:47:23;;;;;;;;;;;;;;;;;;5098695;28;19921;-91
2022/06/21 13:49:53;;;;;;;;;;;;;;;;;;5055958;28;19967;-90
2022/06/21 13:52:38;;;;;;;;;;;;;;;;;;5059202;28;20364;-90
2022/06/21 13:55:23;;;;;;;;;;;;;;;;;;5057202;28;19927;-90
2022/06/21 13:58:08;;;;;;;;;;;;;;;;;;5057106;28;19918;-90
2022/06/21 14:00:40;;;;;;;;;;;;;;;;;;5062926;28;19920;-91
2022/06/21 14:03:24;;;;;;;;;;;;;;;;;;5077041;28;19920;-89
2022/06/21 14:05:58;;;;;;;;;;;;;;;;;;5072030;28;19924;-93
2022/06/21 14:08:30;;;;;;;;;;;;;;;;;;5078304;28;19950;-92
2022/06/21 14:10:59;;;;;;;;;;;;;;;;;;5066335;28;19929;-91
2022/06/21 14:13:28;;;;;;;;;;;;;;;;;;5064339;28;19978;-90
2022/06/21 14:16:02;;;;;;;;;;;;;;;;;;5079427;28;19920;-93
2022/06/21 14:18:30;;;;;;;;;;;;;;;;;;5066071;28;20409;-92
2022/06/21 14:21:05;;;;;;;;;;;;;;;;;;5068790;28;19952;-92
2022/06/21 14:23:36;;;;;;;;;;;;;;;;;;5076713;28;19917;-92
2022/06/21 14:26:17;;;;;;;;;;;;;;;;;;5067294;28;19928;-92
2022/06/21 14:34:20;;;;;;;;;;;;;;;;;;5025252;28;19988;-90
2022/06/21 14:36:53;;;;;;;;;;;;;;;;;;5030943;28;20376;-89
2022/06/21 14:39:19;;;;;;;;;;;;;;;;;;5034836;28;20342;-89
2022/06/21 14:42:03;;;;;;;;;;;;;;;;;;5034820;28;19963;-91
2022/06/21 14:44:28;;;;;;;;;;;;;;;;;;5033760;28;19913;-89
2022/06/21 14:46:53;;;;;;;;;;;;;;;;;;5036246;28;19966;-90
2022/06/21 14:49:33;;;;;;;;;;;;;;;;;;5035024;28;19913;-90
2022/06/21 14:52:07;;;;;;;;;;;;;;;;;;5035481;28;19986;-90
2022/06/21 14:54:42;;;;;;;;;;;;;;;;;;5036338;28;19920;-91
2022/06/21 14:57:17;;;;;;;;;;;;;;;;;;5034664;28;19917;-90
2022/06/21 14:59:42;;;;;;;;;;;;;;;;;;5034326;28;20004;-90
2022/06/21 15:02:16;;;;;;;;;;;;;;;;;;5034550;28;19948;-89
2022/06/21 15:07:54;;;;;;;;;;;;;;;;;;5036083;28;19931;-89
2022/06/21 15:16:31;;;;;;;;;;;;;;;;;;5031233;28;20078;-89
2022/06/21 15:19:53;;;;;;;;;;;;;;;;;;5031059;28;19928;-91
2022/06/21 15:21:56;;;;;;;;;;;;;;;;;;5018764;28;19922;-92
2022/06/21 15:24:24;;;;;;;;;;;;;;;;;;5036414;28;19925;-91
2022/06/21 15:26:55;;;;;;;;;;;;;;;;;;5025870;28;19917;-89
2022/06/21 15:29:33;;;;;;;;;;;;;;;;;;5014609;28;19917;-90
2022/06/21 15:35:15;;;;;;;;;;;;;;;;;;4996881;28;19980;-92
2022/06/21 15:40:52;;;;;;;;;;;;;;;;;;5014726;28;19924;-92
2022/06/21 15:43:34;;;;;;;;;;;;;;;;;;5017889;28;19917;-89
2022/06/21 15:46:06;;;;;;;;;;;;;;;;;;5015641;28;19940;-90
2022/06/21 15:51:30;;;;;;;;;;;;;;;;;;5023816;28;20015;-90
2022/06/21 15:54:07;;;;;;;;;;;;;;;;;;5029342;28;20018;-91
2022/06/21 15:56:38;;;;;;;;;;;;;;;;;;5024080;28;20025;-88
2022/06/21 15:59:20;;;;;;;;;;;;;;;;;;5030434;28;20054;-91
2022/06/21 16:02:08;;;;;;;;;;;;;;;;;;5026963;28;19921;-93
2022/06/21 16:04:33;;;;;;;;;;;;;;;;;;5011893;28;19936;-93
2022/06/21 16:07:01;;;;;;;;;;;;;;;;;;5020588;28;19917;-91
2022/06/21 16:09:29;;;;;;;;;;;;;;;;;;5030351;28;19921;-91
2022/06/21 16:21:37;;;;;;;;;;;;;;;;;;5030418;28;19928;-90
2022/06/21 16:24:13;;;;;;;;;;;;;;;;;;5026468;28;19917;-93
2022/06/21 16:27:05;;;;;;;;;;;;;;;;;;5033283;28;19940;-93
2022/06/21 16:29:36;;;;;;;;;;;;;;;;;;5025077;28;19996;-93
2022/06/21 16:35:02;;;;;;;;;;;;;;;;;;5034242;28;19923;-93
2022/06/21 16:46:33;;;;;;;;;;;;;;;;;;5016707;28;19964;-91
2022/06/21 16:49:25;;;;;;;;;;;;;;;;;;5018453;28;19917;-91
2022/06/21 16:58:21;;;;;;;;;;;;;;;;;;5054335;23;19936;-93
2022/06/21 17:01:02;;;;;;;;;;;;;;;;;;5054879;28;19928;-94
2022/06/21 17:09:10;;;;;;;;;;;;;;;;;;5169618;22;19924;-93
2022/06/21 17:18:43;;;;;;;;;;;;;;;;;;5082475;28;19955;-90
2022/06/21 17:21:15;;;;;;;;;;;;;;;;;;5081443;28;19995;-92
2022/06/21 17:23:47;;;;;;;;;;;;;;;;;;5081688;28;20003;-91
2022/06/21 17:26:25;;;;;;;;;;;;;;;;;;5061446;28;19924;-90
2022/06/21 17:28:55;;;;;;;;;;;;;;;;;;5076488;28;19925;-91
2022/06/21 17:31:31;;;;;;;;;;;;;;;;;;5057741;28;19917;-91
2022/06/21 17:34:06;;;;;;;;;;;;;;;;;;5054658;28;19917;-91
2022/06/21 17:36:44;;;;;;;;;;;;;;;;;;5055125;28;19920;-90
2022/06/21 17:39:09;;;;;;;;;;;;;;;;;;5073952;28;19939;-92
2022/06/21 17:41:53;;;;;;;;;;;;;;;;;;5055269;28;20375;-91
2022/06/21 17:44:25;;;;;;;;;;;;;;;;;;5054054;28;19952;-93
2022/06/21 17:46:55;;;;;;;;;;;;;;;;;;5072224;28;19920;-92
2022/06/21 17:49:24;;;;;;;;;;;;;;;;;;5055039;28;19912;-94
2022/06/21 17:54:55;;;;;;;;;;;;;;;;;;5073060;28;19958;-94
2022/06/21 17:57:23;;;;;;;;;;;;;;;;;;5072531;28;19971;-92
2022/06/21 17:59:48;;;;;;;;;;;;;;;;;;5055260;28;19917;-92
2022/06/21 18:08:18;;;;;;;;;;;;;;;;;;5072042;28;19975;-91
2022/06/21 18:10:52;;;;;;;;;;;;;;;;;;5057535;28;19974;-93
2022/06/21 18:13:28;;;;;;;;;;;;;;;;;;5057602;28;20050;-92
2022/06/21 18:16:10;;;;;;;;;;;;;;;;;;5075614;28;20397;-89
2022/06/21 18:24:53;;;;;;;;;;;;;;;;;;5076408;28;19927;-90
2022/06/21 18:27:39;;;;;;;;;;;;;;;;;;5075794;28;20371;-90
2022/06/21 18:30:06;;;;;;;;;;;;;;;;;;5043691;28;19916;-90
2022/06/21 18:41:59;;;;;;;;;;;;;;;;;;5076495;28;20280;-91
2022/06/21 18:44:29;;;;;;;;;;;;;;;;;;5036583;28;20374;-92
2022/06/21 18:47:04;;;;;;;;;;;;;;;;;;5074942;28;20271;-89
2022/06/21 18:49:38;;;;;;;;;;;;;;;;;;5057708;28;19921;-93
2022/06/21 18:52:22;;;;;;;;;;;;;;;;;;5056170;28;19960;-91
2022/06/21 18:54:56;;;;;;;;;;;;;;;;;;5057195;28;20402;-91
2022/06/21 18:57:47;;;;;;;;;;;;;;;;;;5075191;28;19919;-91
2022/06/21 19:00:29;;;;;;;;;;;;;;;;;;5054161;28;20383;-89
2022/06/21 19:03:02;;;;;;;;;;;;;;;;;;5075550;28;19926;-91
2022/06/21 19:09:03;;;;;;;;;;;;;;;;;;5071872;28;20034;-94
2022/06/21 19:11:48;;;;;;;;;;;;;;;;;;5033207;28;20389;-92
2022/06/21 19:17:49;;;;;;;;;;;;;;;;;;5035951;28;20107;-90